Airfield :







YOU CAN JOIN US ON...

 
LOGIN :

Register | Disclaimer

   EN    FR    IT 

 









Legend :    VFR   Marginal VFR   IFR   Intensive IFR   Very Intensive IFR
Visi :
Ceiling :
>= 8 km
>= 3000ft
5 to 8 km
1000 to 3000 ft
1500m to 5 km
500 to 1000 ft
800 to 1500m
200 to 500 ft
< 800m
< 200 ft
Symbols :   Thunderstorms  Fog  Heavy snow  Heavy precipitations  Wind > 20 kt






- Airport Elevation : 92 ft
- IATA code : YZX


CYZX - CFB Greenwood

CURRENT METAR :
  • 151000Z 19002KT 1/4SM R26/1400FT/U FG VV002 14/13 A3004 RMK FG8 SLP173

EXPIRED METARs :
  • 150900Z 25003KT 1/4SM R26/1400FT/U FG VV002 14/13 A3004 RMK FG8 SLP172
  • 150800Z 23003KT 1/4SM R26/1400FT/N FG VV002 14/14 A3003 RMK FG8 SLP169

TAF AMD TAF CYZX
Valid from the 15 at 10:00 until the 16 at 06:00 UTC


151002Z 1510/1606 VRB03KT 1/4SM FG VV002
BECMG 1510/1512 P6SM NSW FEW002 BKN250
FM151200 26004KT P6SM SCT012 SCT250
TEMPO 1512/1514 BKN012
FM151400 30005KT P6SM SCT025 SCT250
FM160200 VRB03KT P6SM SCT030 BKN150 BKN240 RMK NXT FCST BY 151200Z
CZQM FIR / North America



MET'MAP, your aeronautical weather chart ! - Copyright ORBIFLY December 2007 - Disclaimer

ORBIFLY MET'MAP TEAM :

Programming & Development : Alexandra Zaïnal
Original concept : Baudouin d'Aumeries
Technical & hardware support : Manuel Goepfert
Assistance : Marc-Olivier Méhu




SOURCES & CREDITS :

   NOAA